Time;durP1;ratioP1;P1;durP2;ratioP2;P2;SDS_P1;SDS_P2;PMS_P1;PMS_P2;Temp;Humidity;BMP_temperature;BMP_pressure;BME280_temperature;BME280_humidity;BME280_pressure;Samples;Min_cycle;Max_cycle;Signal;HPM_P1;HPM_P2
2023/08/30 00:00:38;;;;;;;10.30;7.60;;;;;;;12.86;88.54;100850.28;5029423;28;20108;-67
2023/08/30 00:03:03;;;;;;;10.52;7.82;;;;;;;12.87;88.46;100849.28;5034278;28;20103;-67
2023/08/30 00:05:29;;;;;;;12.45;8.35;;;;;;;12.81;88.43;100838.53;5031960;28;20029;-67
2023/08/30 00:07:54;;;;;;;11.45;8.60;;;;;;;12.82;88.45;100840.19;5033971;28;20041;-67
2023/08/30 00:10:19;;;;;;;12.20;8.50;;;;;;;12.74;88.44;100837.63;5031799;28;20406;-67
2023/08/30 00:12:45;;;;;;;9.98;7.60;;;;;;;12.72;88.25;100832.47;5028725;28;20473;-67
2023/08/30 00:15:10;;;;;;;11.73;8.27;;;;;;;12.72;88.86;100827.13;5029297;28;20064;-66
2023/08/30 00:17:35;;;;;;;10.40;8.48;;;;;;;12.72;88.81;100827.13;5031279;28;20040;-67
2023/08/30 00:20:00;;;;;;;12.13;8.70;;;;;;;12.66;89.06;100826.03;5031614;28;20038;-67
2023/08/30 00:22:27;;;;;;;12.35;8.70;;;;;;;12.67;89.58;100825.03;5029823;28;20063;-66
2023/08/30 00:24:52;;;;;;;12.70;8.70;;;;;;;12.69;89.23;100825.66;5028703;28;20497;-66
2023/08/30 00:27:18;;;;;;;10.38;8.40;;;;;;;12.63;89.21;100826.41;5028458;28;20041;-67
2023/08/30 00:29:43;;;;;;;10.85;9.07;;;;;;;12.70;89.23;100827.31;5031917;28;20047;-66
2023/08/30 00:32:08;;;;;;;14.68;9.18;;;;;;;12.65;89.29;100827.06;5034494;28;20025;-66
2023/08/30 00:34:33;;;;;;;10.23;8.98;;;;;;;12.65;89.40;100820.91;5032980;28;20113;-67
2023/08/30 00:36:59;;;;;;;11.82;8.45;;;;;;;12.68;89.33;100820.53;5038209;28;20028;-67
2023/08/30 00:39:24;;;;;;;13.43;9.30;;;;;;;12.64;89.46;100824.56;5035900;28;20032;-67
2023/08/30 00:41:49;;;;;;;12.43;9.23;;;;;;;12.65;89.21;100819.06;5032076;28;20025;-66
2023/08/30 00:44:15;;;;;;;12.75;9.35;;;;;;;12.60;88.77;100808.13;5027067;28;20648;-67
2023/08/30 00:46:40;;;;;;;10.45;9.02;;;;;;;12.63;88.79;100814.94;5033453;28;20436;-67
2023/08/30 00:49:06;;;;;;;11.60;9.23;;;;;;;12.60;88.92;100808.13;5037843;28;20083;-67
2023/08/30 00:51:32;;;;;;;13.82;9.82;;;;;;;12.55;88.23;100799.03;5030389;28;20079;-67
2023/08/30 00:53:59;;;;;;;12.40;9.35;;;;;;;12.51;88.37;100805.75;5036511;28;20033;-67
2023/08/30 00:56:27;;;;;;;12.70;9.63;;;;;;;12.46;87.90;100800.16;5030417;28;20027;-66
2023/08/30 00:58:52;;;;;;;15.25;9.57;;;;;;;12.39;87.93;100797.38;5037407;28;20116;-66
2023/08/30 01:01:18;;;;;;;14.02;10.13;;;;;;;12.33;87.96;100801.59;5033119;28;20029;-67
2023/08/30 01:03:43;;;;;;;12.25;9.13;;;;;;;12.33;88.06;100806.09;5032283;28;20061;-66
2023/08/30 01:06:09;;;;;;;11.45;9.38;;;;;;;12.30;87.74;100795.81;5036435;28;20033;-66
2023/08/30 01:08:36;;;;;;;19.02;10.20;;;;;;;12.25;88.16;100809.69;5036961;28;20027;-66
2023/08/30 01:11:24;;;;;;;12.25;9.77;;;;;;;12.31;88.30;100802.81;5030201;28;20021;-66
2023/08/30 01:13:55;;;;;;;11.95;9.55;;;;;;;12.30;88.16;100798.50;5031043;28;20083;-66
2023/08/30 01:16:23;;;;;;;14.50;10.15;;;;;;;12.27;88.56;100799.69;5036257;28;20033;-67
2023/08/30 01:18:50;;;;;;;13.52;10.18;;;;;;;12.33;88.45;100800.78;5030047;28;20087;-66
2023/08/30 01:21:30;;;;;;;13.35;9.40;;;;;;;12.30;88.51;100796.66;5035331;28;20091;-66
2023/08/30 01:24:05;;;;;;;14.45;10.57;;;;;;;12.31;88.19;100795.63;5032663;28;20040;-66
2023/08/30 01:26:50;;;;;;;13.25;9.85;;;;;;;12.34;88.23;100797.09;5033083;28;20079;-66
2023/08/30 01:29:18;;;;;;;13.85;10.50;;;;;;;12.32;87.90;100799.97;5031715;28;20406;-66
2023/08/30 01:31:45;;;;;;;11.52;9.65;;;;;;;12.34;88.09;100791.78;5039031;28;20052;-66
2023/08/30 01:34:13;;;;;;;14.98;9.82;;;;;;;12.36;88.17;100784.44;5031210;28;20517;-66
2023/08/30 01:36:39;;;;;;;13.75;9.88;;;;;;;12.38;88.18;100777.91;5031470;28;20037;-66
2023/08/30 01:39:04;;;;;;;11.77;9.73;;;;;;;12.36;88.42;100776.44;5031063;28;20134;-66
2023/08/30 01:41:30;;;;;;;13.57;10.07;;;;;;;12.35;87.81;100772.97;5032582;28;20502;-66
2023/08/30 01:43:58;;;;;;;11.95;9.55;;;;;;;12.38;88.20;100785.91;5036930;28;20035;-66
2023/08/30 01:46:24;;;;;;;15.87;9.80;;;;;;;12.33;88.06;100776.81;5043153;28;20056;-67
2023/08/30 01:48:50;;;;;;;13.05;9.65;;;;;;;12.30;88.35;100782.50;5031683;28;20056;-66
2023/08/30 01:51:16;;;;;;;12.73;10.02;;;;;;;12.28;88.22;100776.53;5041379;28;20033;-67
2023/08/30 01:53:46;;;;;;;13.05;9.13;;;;;;;12.31;88.71;100776.19;5032722;28;20025;-67
2023/08/30 01:56:11;;;;;;;15.27;9.82;;;;;;;12.29;88.35;100772.88;5034130;28;20041;-66
2023/08/30 01:58:36;;;;;;;14.18;9.82;;;;;;;12.18;87.62;100782.16;5035290;28;20502;-66
2023/08/30 02:01:02;;;;;;;11.82;9.05;;;;;;;12.23;88.11;100778.94;5038909;28;20044;-68
2023/08/30 02:03:27;;;;;;;12.40;9.65;;;;;;;12.21;88.08;100776.47;5037056;28;20021;-66
2023/08/30 02:06:04;;;;;;;13.35;9.38;;;;;;;12.23;88.49;100769.09;5043283;28;20478;-66
2023/08/30 02:08:44;;;;;;;11.35;9.43;;;;;;;12.23;88.12;100782.41;5039483;28;20091;-66
2023/08/30 02:11:15;;;;;;;14.40;9.73;;;;;;;12.23;88.20;100786.91;5037746;28;20069;-66
2023/08/30 02:13:43;;;;;;;12.70;9.57;;;;;;;12.20;88.58;100785.44;5029802;28;20100;-67
2023/08/30 02:16:09;;;;;;;13.88;9.23;;;;;;;12.20;88.63;100774.81;5035592;28;20025;-66
2023/08/30 02:18:36;;;;;;;13.20;10.13;;;;;;;12.18;88.22;100778.66;5033237;28;20076;-66
2023/08/30 02:21:02;;;;;;;13.18;9.40;;;;;;;12.15;88.11;100765.72;5033717;28;20044;-66
2023/08/30 02:23:27;;;;;;;12.13;9.63;;;;;;;12.15;88.25;100771.88;5030971;28;20103;-67
2023/08/30 02:25:54;;;;;;;14.52;10.45;;;;;;;12.10;88.43;100763.56;5034032;28;20030;-67
2023/08/30 02:28:19;;;;;;;13.13;9.43;;;;;;;12.18;88.05;100766.16;5030287;28;20030;-67
2023/08/30 02:30:44;;;;;;;14.15;10.25;;;;;;;12.19;88.42;100770.50;5033497;28;20079;-66
2023/08/30 02:33:09;;;;;;;12.65;10.35;;;;;;;12.20;88.19;100768.66;5030009;28;20383;-67
2023/08/30 02:35:35;;;;;;;13.65;10.27;;;;;;;12.19;88.16;100761.69;5029357;28;20049;-66
2023/08/30 02:38:04;;;;;;;11.88;10.45;;;;;;;12.18;88.70;100752.88;5034058;28;20017;-67
2023/08/30 02:40:29;;;;;;;;;;;;;;;12.28;88.05;100758.72;5038708;28;20384;-66
2023/08/30 02:42:55;;;;;;;13.43;9.70;;;;;;;12.17;88.05;100753.03;5038438;28;20404;-66
2023/08/30 02:45:20;;;;;;;12.82;9.80;;;;;;;12.16;87.90;100748.72;5042565;28;20026;-66
2023/08/30 02:47:45;;;;;;;13.18;9.98;;;;;;;12.08;88.43;100746.97;5034612;28;20026;-66
2023/08/30 02:50:11;;;;;;;11.88;9.48;;;;;;;12.04;88.39;100749.16;5037266;28;20098;-66
2023/08/30 02:52:36;;;;;;;13.93;10.05;;;;;;;12.03;88.48;100752.00;5033462;28;20371;-66
2023/08/30 02:55:01;;;;;;;12.00;9.77;;;;;;;12.00;88.36;100734.56;5033627;28;20056;-66
2023/08/30 02:57:27;;;;;;;13.50;10.15;;;;;;;11.98;88.32;100739.25;5043087;28;20025;-66
2023/08/30 02:59:52;;;;;;;13.93;10.35;;;;;;;11.99;88.81;100726.78;5035980;28;20051;-66
2023/08/30 03:02:17;;;;;;;14.93;10.40;;;;;;;12.01;88.67;100730.06;5040439;28;20442;-66
2023/08/30 03:04:42;;;;;;;12.32;10.20;;;;;;;12.00;88.61;100728.44;5040846;28;20087;-67
2023/08/30 03:07:08;;;;;;;12.45;10.20;;;;;;;12.00;89.31;100739.06;5046743;28;20163;-67
2023/08/30 03:09:33;;;;;;;15.85;10.95;;;;;;;12.00;88.70;100733.75;5040736;28;20029;-66
2023/08/30 03:11:58;;;;;;;14.48;9.32;;;;;;;11.94;89.04;100737.16;5039246;28;20025;-66
2023/08/30 03:14:23;;;;;;;16.25;10.32;;;;;;;11.95;89.02;100738.78;5035307;28;20036;-66
2023/08/30 03:16:49;;;;;;;13.80;9.88;;;;;;;11.95;89.56;100734.31;5039112;28;20468;-66
2023/08/30 03:19:17;;;;;;;13.05;10.27;;;;;;;11.98;89.53;100730.44;5047896;28;20024;-67
2023/08/30 03:21:42;;;;;;;13.45;10.20;;;;;;;11.96;89.74;100709.34;5041556;28;20613;-67
2023/08/30 03:24:07;;;;;;;13.98;10.13;;;;;;;12.02;90.10;100718.41;5040537;28;20040;-66
2023/08/30 03:26:32;;;;;;;13.30;10.25;;;;;;;12.03;90.07;100720.91;5033941;28;20041;-67
2023/08/30 03:28:58;;;;;;;15.63;10.40;;;;;;;12.04;90.01;100709.25;5035644;28;20032;-67
2023/08/30 03:31:23;;;;;;;16.48;10.38;;;;;;;12.04;89.90;100711.06;5033416;28;20601;-66
2023/08/30 03:33:49;;;;;;;15.00;10.35;;;;;;;12.04;89.88;100700.44;5043181;28;20060;-66
2023/08/30 03:36:16;;;;;;;15.23;10.73;;;;;;;12.04;89.58;100703.09;5040011;28;20498;-66
2023/08/30 03:38:42;;;;;;;13.70;10.65;;;;;;;12.04;89.76;100690.59;5034816;28;20029;-66
2023/08/30 03:41:08;;;;;;;13.73;10.32;;;;;;;12.01;89.83;100687.50;5038694;28;20032;-66
2023/08/30 03:43:34;;;;;;;13.43;9.60;;;;;;;12.00;89.89;100680.53;5038100;28;20086;-66
2023/08/30 03:46:00;;;;;;;12.70;9.98;;;;;;;12.00;89.88;100670.69;5042408;28;20449;-67
2023/08/30 03:48:26;;;;;;;15.65;10.80;;;;;;;11.97;89.89;100665.75;5033842;28;20438;-66
2023/08/30 03:50:52;;;;;;;13.38;9.98;;;;;;;11.97;90.12;100659.59;5039558;28;20032;-66
2023/08/30 03:53:17;;;;;;;14.05;10.43;;;;;;;11.95;90.18;100653.63;5034643;28;20176;-66
2023/08/30 03:55:42;;;;;;;15.10;10.90;;;;;;;11.94;90.57;100646.66;5036907;28;20060;-67
2023/08/30 03:58:07;;;;;;;15.80;11.45;;;;;;;11.91;90.62;100644.38;5043282;28;20395;-66
2023/08/30 04:00:36;;;;;;;15.30;10.85;;;;;;;11.88;90.95;100640.25;5044601;28;20025;-66
2023/08/30 04:03:01;;;;;;;14.77;11.82;;;;;;;11.86;91.02;100633.47;5039691;28;20100;-67
2023/08/30 04:05:27;;;;;;;14.63;11.40;;;;;;;11.83;90.95;100631.97;5042104;28;20100;-66
2023/08/30 04:07:52;;;;;;;18.45;11.70;;;;;;;11.79;91.61;100634.16;5031713;28;20418;-66
2023/08/30 04:10:17;;;;;;;14.45;11.82;;;;;;;11.76;91.29;100634.50;5035694;28;20055;-66
2023/08/30 04:12:42;;;;;;;17.77;11.52;;;;;;;11.73;91.75;100634.06;5035570;28;20029;-66
2023/08/30 04:15:09;;;;;;;18.65;12.25;;;;;;;11.73;92.30;100634.06;5035158;28;20096;-66
2023/08/30 04:17:34;;;;;;;17.02;12.23;;;;;;;11.74;92.31;100635.69;5041641;28;20051;-66
2023/08/30 04:19:59;;;;;;;16.23;11.95;;;;;;;11.74;92.91;100627.72;5042282;28;20092;-66
2023/08/30 04:22:25;;;;;;;16.75;12.07;;;;;;;11.73;92.83;100629.56;5047775;28;20029;-66
2023/08/30 04:24:50;;;;;;;16.65;12.32;;;;;;;11.77;93.03;100633.50;5042403;28;20532;-67
2023/08/30 04:27:15;;;;;;;18.10;11.82;;;;;;;11.76;93.37;100628.38;5044805;28;20029;-66
2023/08/30 04:29:44;;;;;;;17.88;11.68;;;;;;;11.78;93.79;100629.84;5034748;28;20073;-66
2023/08/30 04:32:10;;;;;;;21.95;13.20;;;;;;;11.78;93.47;100631.69;5031633;28;20423;-66
2023/08/30 04:34:35;;;;;;;19.50;12.75;;;;;;;11.76;94.04;100626.53;5033476;28;20024;-66
2023/08/30 04:37:00;;;;;;;16.50;12.60;;;;;;;11.76;94.14;100617.72;5046432;28;20040;-66
2023/08/30 04:39:25;;;;;;;15.77;12.25;;;;;;;11.81;94.44;100626.00;5039263;28;20025;-66
2023/08/30 04:41:52;;;;;;;18.77;13.00;;;;;;;11.81;94.25;100619.84;5047522;28;20021;-67
2023/08/30 04:44:19;;;;;;;17.67;12.95;;;;;;;11.83;94.50;100621.31;5036102;28;20025;-66
2023/08/30 04:46:44;;;;;;;20.67;13.05;;;;;;;11.83;94.72;100617.84;5040438;28;20022;-66
2023/08/30 04:49:09;;;;;;;16.45;11.55;;;;;;;11.87;94.86;100613.81;5035264;28;20029;-66
2023/08/30 04:51:35;;;;;;;19.33;12.98;;;;;;;11.89;94.68;100606.47;5042909;28;20160;-66
2023/08/30 04:54:00;;;;;;;21.48;14.00;;;;;;;11.91;94.81;100605.28;5044354;28;20597;-66
2023/08/30 04:56:25;;;;;;;19.55;13.32;;;;;;;11.94;94.91;100594.25;5045408;28;20023;-67
2023/08/30 04:58:51;;;;;;;18.20;13.07;;;;;;;11.97;95.33;100593.06;5051158;28;20047;-67
2023/08/30 05:01:16;;;;;;;16.08;13.23;;;;;;;12.00;95.47;100601.50;5041605;28;20202;-66
2023/08/30 05:03:42;;;;;;;20.50;13.25;;;;;;;12.03;95.16;100598.47;5037691;28;20395;-66
2023/08/30 05:06:07;;;;;;;16.77;12.95;;;;;;;12.06;95.72;100591.94;5042301;28;20063;-66
2023/08/30 05:08:32;;;;;;;17.90;12.93;;;;;;;12.07;95.33;100583.78;5032634;28;20069;-66
2023/08/30 05:10:58;;;;;;;21.27;13.15;;;;;;;12.13;95.98;100579.53;5046773;28;20508;-66
2023/08/30 05:13:23;;;;;;;19.25;13.15;;;;;;;12.16;95.70;100589.00;5042042;28;20025;-66
2023/08/30 05:15:48;;;;;;;18.13;13.00;;;;;;;12.22;96.24;100590.91;5042431;28;20068;-66
2023/08/30 05:18:14;;;;;;;17.95;13.27;;;;;;;12.24;95.96;100594.22;5044374;28;20104;-66
2023/08/30 05:20:39;;;;;;;16.17;13.55;;;;;;;12.26;95.94;100589.53;5039106;28;20398;-66
2023/08/30 05:23:04;;;;;;;20.33;13.70;;;;;;;12.26;96.21;100589.53;5033933;28;20021;-66
2023/08/30 05:25:29;;;;;;;16.77;13.30;;;;;;;12.27;96.54;100593.84;5037456;28;20124;-66
2023/08/30 05:27:55;;;;;;;15.40;12.70;;;;;;;12.30;96.31;100593.47;5032016;28;20036;-66
2023/08/30 05:30:20;;;;;;;17.30;13.38;;;;;;;12.33;96.81;100598.41;5038031;28;20020;-66
2023/08/30 05:32:45;;;;;;;17.75;13.55;;;;;;;12.36;96.91;100585.53;5029882;28;20108;-66
2023/08/30 05:35:11;;;;;;;17.67;13.25;;;;;;;12.41;96.67;100591.13;5034780;28;20108;-66
2023/08/30 05:37:36;;;;;;;19.42;13.30;;;;;;;12.47;96.74;100583.41;5038611;28;20021;-66
2023/08/30 05:40:02;;;;;;;16.58;13.05;;;;;;;12.49;96.92;100579.53;5032574;28;20025;-66
2023/08/30 05:42:27;;;;;;;17.30;13.07;;;;;;;12.54;96.97;100578.97;5041446;28;20028;-66
2023/08/30 05:44:53;;;;;;;19.27;12.98;;;;;;;12.57;96.92;100571.41;5039039;28;20028;-66
2023/08/30 05:47:20;;;;;;;20.10;13.80;;;;;;;12.63;97.47;100575.16;5039208;28;20025;-66
2023/08/30 05:49:45;;;;;;;18.23;13.32;;;;;;;12.67;97.20;100566.59;5034544;28;20470;-66
2023/08/30 05:52:10;;;;;;;20.52;13.20;;;;;;;12.72;97.41;100568.66;5029709;28;20040;-66
2023/08/30 05:54:36;;;;;;;17.15;12.68;;;;;;;12.77;97.19;100562.81;5035295;28;20033;-66
2023/08/30 05:57:01;;;;;;;22.02;13.23;;;;;;;12.79;97.22;100560.75;5030931;28;20032;-67
2023/08/30 05:59:27;;;;;;;19.63;13.88;;;;;;;12.82;97.42;100561.19;5038722;28;20104;-66
2023/08/30 06:01:53;;;;;;;18.23;12.80;;;;;;;12.86;97.10;100562.47;5027345;28;20025;-66
2023/08/30 06:04:18;;;;;;;17.85;13.05;;;;;;;12.91;97.25;100564.53;5032940;28;20025;-66
2023/08/30 06:06:43;;;;;;;16.52;12.48;;;;;;;12.95;97.32;100560.47;5044265;28;20033;-66
2023/08/30 06:09:09;;;;;;;17.85;12.95;;;;;;;12.98;97.17;100562.75;5033914;28;20025;-66
2023/08/30 06:11:34;;;;;;;18.85;12.38;;;;;;;12.98;97.03;100565.41;5037398;28;20017;-66
2023/08/30 06:13:59;;;;;;;17.65;12.18;;;;;;;12.99;96.61;100569.72;5040015;28;20029;-66
2023/08/30 06:16:25;;;;;;;16.80;12.32;;;;;;;12.97;96.94;100569.91;5036597;28;20030;-66
2023/08/30 06:18:50;;;;;;;17.17;11.93;;;;;;;13.01;96.89;100578.38;5037221;28;20025;-66
2023/08/30 06:21:16;;;;;;;17.95;12.27;;;;;;;13.02;97.16;100572.03;5043051;28;20394;-66
2023/08/30 06:23:41;;;;;;;16.42;12.05;;;;;;;13.04;97.02;100575.34;5042629;28;20066;-66
2023/08/30 06:26:06;;;;;;;20.83;12.80;;;;;;;13.07;97.50;100571.44;5042945;28;20033;-66
2023/08/30 06:28:32;;;;;;;15.23;13.00;;;;;;;13.09;97.37;100572.09;5036218;28;20035;-66
2023/08/30 06:30:57;;;;;;;16.88;11.93;;;;;;;13.11;98.04;100572.72;5035823;28;20040;-66
2023/08/30 06:33:22;;;;;;;17.65;12.25;;;;;;;13.11;98.04;100570.88;5037527;28;20025;-66
2023/08/30 06:35:50;;;;;;;15.13;12.10;;;;;;;13.11;98.31;100562.88;5037184;28;20049;-66
2023/08/30 06:38:15;;;;;;;16.08;12.68;;;;;;;13.14;98.47;100567.81;5039555;28;20031;-66
2023/08/30 06:40:45;;;;;;;17.02;13.10;;;;;;;13.18;99.02;100571.75;5035391;28;20021;-67
2023/08/30 06:43:10;;;;;;;19.15;13.25;;;;;;;13.23;99.34;100566.66;5035337;28;20029;-66
2023/08/30 06:45:38;;;;;;;19.80;13.90;;;;;;;13.25;99.50;100569.97;5038878;28;20031;-66
2023/08/30 06:48:03;;;;;;;20.25;13.13;;;;;;;13.27;99.92;100577.78;5044818;28;20032;-66
2023/08/30 06:50:29;;;;;;;19.40;13.60;;;;;;;13.20;100.00;100579.56;5032057;28;20026;-66
2023/08/30 06:52:54;;;;;;;17.38;13.70;;;;;;;13.13;99.94;100584.00;5035557;28;20421;-66
2023/08/30 06:55:19;;;;;;;17.63;13.23;;;;;;;13.07;100.00;100571.44;5029281;28;20036;-67
2023/08/30 06:57:48;;;;;;;18.17;13.77;;;;;;;13.05;100.00;100571.66;5029028;28;20022;-67
2023/08/30 07:00:14;;;;;;;17.92;14.13;;;;;;;13.07;100.00;100574.13;5036252;28;20134;-67
2023/08/30 07:02:40;;;;;;;19.70;14.73;;;;;;;13.02;100.00;100582.69;5040178;28;20434;-67
2023/08/30 07:05:06;;;;;;;17.55;13.85;;;;;;;12.98;100.00;100574.25;5029680;28;20018;-67
2023/08/30 07:07:32;;;;;;;20.98;15.05;;;;;;;13.01;100.00;100559.72;5033984;28;20021;-67
2023/08/30 07:09:57;;;;;;;20.35;13.85;;;;;;;13.01;100.00;100544.56;5037588;28;20636;-67
2023/08/30 07:12:22;;;;;;;20.77;14.73;;;;;;;13.01;100.00;100538.41;5040075;28;20116;-67
2023/08/30 07:14:48;;;;;;;20.90;14.30;;;;;;;13.03;100.00;100537.19;5036581;28;20422;-67
2023/08/30 07:17:13;;;;;;;21.40;14.65;;;;;;;13.02;100.00;100532.88;5035612;28;20086;-67
2023/08/30 07:19:39;;;;;;;20.20;14.35;;;;;;;13.05;100.00;100526.31;5035022;28;20057;-67
2023/08/30 07:22:04;;;;;;;20.77;15.90;;;;;;;13.03;100.00;100528.38;5039296;28;20033;-67
2023/08/30 07:24:29;;;;;;;21.80;15.20;;;;;;;13.06;100.00;100525.31;5037235;28;20067;-67
2023/08/30 07:26:54;;;;;;;18.30;14.48;;;;;;;13.08;100.00;100515.28;5041006;28;20062;-67
2023/08/30 07:29:20;;;;;;;20.05;13.40;;;;;;;13.10;100.00;100501.75;5033130;28;20510;-67
2023/08/30 07:31:45;;;;;;;17.65;13.43;;;;;;;13.07;100.00;100510.13;5045682;28;20032;-66
2023/08/30 07:34:10;;;;;;;20.67;13.95;;;;;;;13.11;100.00;100508.72;5037490;28;20029;-67
2023/08/30 07:36:36;;;;;;;19.77;14.30;;;;;;;13.11;100.00;100501.56;5042640;28;20112;-67
2023/08/30 07:39:01;;;;;;;18.73;13.68;;;;;;;13.13;100.00;100499.50;5038307;28;20025;-67
2023/08/30 07:41:27;;;;;;;17.95;12.75;;;;;;;13.10;100.00;100499.09;5046189;28;20021;-67
2023/08/30 07:43:52;;;;;;;17.02;13.02;;;;;;;13.13;100.00;100485.34;5044197;28;20024;-67
2023/08/30 07:46:17;;;;;;;17.80;12.48;;;;;;;13.15;100.00;100492.13;5046923;28;20102;-67
2023/08/30 07:48:43;;;;;;;19.75;13.23;;;;;;;13.21;100.00;100488.72;5034448;28;20032;-67
2023/08/30 07:51:08;;;;;;;16.27;12.25;;;;;;;13.22;100.00;100492.19;5031079;28;20387;-67
2023/08/30 07:53:33;;;;;;;18.33;12.27;;;;;;;13.19;100.00;100487.25;5042796;28;20033;-67
2023/08/30 07:55:58;;;;;;;16.90;12.15;;;;;;;13.19;100.00;100484.59;5042730;28;20563;-67
2023/08/30 07:58:24;;;;;;;15.48;11.88;;;;;;;13.14;100.00;100493.16;5038383;28;20048;-67
2023/08/30 08:00:52;;;;;;;16.60;11.65;;;;;;;13.10;100.00;100489.25;5044285;28;20033;-67
2023/08/30 08:03:18;;;;;;;15.25;11.75;;;;;;;13.08;100.00;100480.63;5044376;28;20021;-67
2023/08/30 08:05:43;;;;;;;14.68;11.35;;;;;;;13.08;100.00;100483.28;5042357;28;20501;-67
2023/08/30 08:08:10;;;;;;;12.75;10.38;;;;;;;13.09;100.00;100481.44;5041520;28;20018;-67
2023/08/30 08:10:36;;;;;;;15.02;10.65;;;;;;;13.09;100.00;100479.59;5042437;28;20143;-66
2023/08/30 08:13:01;;;;;;;15.60;10.50;;;;;;;13.05;100.00;100483.69;5034839;28;20108;-67
2023/08/30 08:15:30;;;;;;;13.75;9.90;;;;;;;13.03;100.00;100486.53;5043978;28;20021;-66
2023/08/30 08:17:55;;;;;;;14.15;9.73;;;;;;;13.03;100.00;100488.38;5035067;28;20550;-67
2023/08/30 08:20:21;;;;;;;12.82;9.05;;;;;;;13.00;100.00;100481.56;5041766;28;20108;-67
2023/08/30 08:22:46;;;;;;;13.30;9.10;;;;;;;13.00;100.00;100481.56;5044521;28;20036;-67
2023/08/30 08:25:11;;;;;;;12.02;8.95;;;;;;;13.04;100.00;100482.03;5036199;28;20778;-67
2023/08/30 08:27:37;;;;;;;9.20;7.60;;;;;;;13.05;100.00;100478.34;5040758;28;20035;-66
2023/08/30 08:30:03;;;;;;;10.05;7.35;;;;;;;13.06;100.00;100477.31;5040458;28;20033;-67
2023/08/30 08:32:30;;;;;;;10.48;8.02;;;;;;;13.08;100.00;100474.47;5035807;28;20056;-66
2023/08/30 08:34:56;;;;;;;11.50;7.40;;;;;;;13.07;100.00;100473.63;5035254;28;20094;-67
2023/08/30 08:37:21;;;;;;;8.60;7.32;;;;;;;13.10;100.00;100478.56;5038657;28;20541;-66
2023/08/30 08:39:46;;;;;;;9.50;6.82;;;;;;;13.10;100.00;100470.56;5039848;28;20033;-67
2023/08/30 08:42:12;;;;;;;8.18;6.93;;;;;;;13.13;100.00;100477.34;5038591;28;20025;-67
2023/08/30 08:44:39;;;;;;;8.20;6.28;;;;;;;13.15;100.00;100476.13;5041235;28;20120;-66
2023/08/30 08:47:05;;;;;;;9.07;7.18;;;;;;;13.17;100.00;100466.13;5038773;28;20030;-66
2023/08/30 08:49:31;;;;;;;8.32;6.90;;;;;;;13.22;100.00;100470.88;5035028;28;20073;-67
2023/08/30 08:51:57;;;;;;;8.30;6.90;;;;;;;13.25;100.00;100476.63;5039476;28;20029;-65
2023/08/30 08:54:22;;;;;;;8.50;7.43;;;;;;;13.28;100.00;100465.56;5039001;28;20028;-66
2023/08/30 08:56:48;;;;;;;10.60;7.65;;;;;;;13.33;100.00;100479.16;5039282;28;20029;-66
2023/08/30 08:59:14;;;;;;;9.10;7.15;;;;;;;13.34;100.00;100474.66;5045890;28;20158;-66
2023/08/30 09:01:39;;;;;;;8.85;7.47;;;;;;;13.35;100.00;100468.28;5034605;28;20029;-66
2023/08/30 09:04:11;;;;;;;10.27;8.13;;;;;;;13.43;100.00;100465.44;5035689;28;20048;-66
2023/08/30 09:06:39;;;;;;;9.23;7.82;;;;;;;13.55;100.00;100471.84;5042764;28;20486;-66
2023/08/30 09:09:05;;;;;;;11.88;8.52;;;;;;;13.65;100.00;100471.50;5047777;28;20054;-66
2023/08/30 09:11:31;;;;;;;9.60;8.07;;;;;;;13.80;100.00;100469.47;5038033;28;20444;-66
2023/08/30 09:13:56;;;;;;;11.88;9.20;;;;;;;13.92;100.00;100462.56;5038747;28;20029;-67
2023/08/30 09:16:22;;;;;;;10.48;8.50;;;;;;;14.01;100.00;100457.03;5041005;28;20056;-66
2023/08/30 09:19:00;;;;;;;10.20;7.88;;;;;;;14.11;100.00;100460.13;5036068;28;20498;-67
2023/08/30 09:21:26;;;;;;;12.05;9.23;;;;;;;14.15;100.00;100450.66;5041508;28;20042;-66
2023/08/30 09:24:05;;;;;;;14.50;10.13;;;;;;;14.30;100.00;100459.31;5042738;28;20028;-66
2023/08/30 09:26:31;;;;;;;10.75;9.73;;;;;;;14.35;100.00;100466.72;5030334;28;20022;-66
2023/08/30 09:29:08;;;;;;;11.40;10.00;;;;;;;14.36;100.00;100463.84;5044997;28;20025;-66
2023/08/30 09:31:34;;;;;;;12.88;10.63;;;;;;;14.33;100.00;100471.44;5029261;28;20022;-67
2023/08/30 09:34:01;;;;;;;13.30;10.57;;;;;;;14.35;100.00;100472.06;5036946;28;20028;-66
2023/08/30 09:36:27;;;;;;;12.20;10.95;;;;;;;14.37;100.00;100464.66;5029365;28;20017;-66
2023/08/30 09:38:52;;;;;;;12.00;10.50;;;;;;;14.39;100.00;100473.31;5030742;28;20029;-66
2023/08/30 09:41:18;;;;;;;12.88;10.73;;;;;;;14.45;100.00;100467.97;5030073;28;20029;-66
2023/08/30 09:43:44;;;;;;;13.60;11.40;;;;;;;14.59;100.00;100465.34;5031122;28;20017;-67
2023/08/30 09:46:10;;;;;;;11.55;10.45;;;;;;;14.62;100.00;100471.09;5037141;28;20029;-66
2023/08/30 09:48:37;;;;;;;12.73;10.85;;;;;;;14.67;100.00;100470.47;5038363;28;20484;-67
2023/08/30 09:51:04;;;;;;;12.02;10.32;;;;;;;14.71;100.00;100472.50;5045380;28;20533;-66
2023/08/30 09:53:33;;;;;;;12.20;11.00;;;;;;;14.79;100.00;100482.19;5039617;28;20021;-66
2023/08/30 09:56:01;;;;;;;12.88;11.52;;;;;;;14.90;100.00;100459.34;5042759;28;20024;-66
2023/08/30 09:58:27;;;;;;;14.05;12.00;;;;;;;15.06;100.00;100461.59;5038416;28;20067;-67
2023/08/30 10:00:53;;;;;;;13.75;12.35;;;;;;;15.33;100.00;100459.66;5047176;28;20071;-67
2023/08/30 10:03:19;;;;;;;13.00;11.70;;;;;;;15.53;100.00;100451.53;5044506;28;20029;-67
2023/08/30 10:05:45;;;;;;;12.88;11.68;;;;;;;15.67;100.00;100455.84;5042946;28;20017;-67
2023/08/30 10:08:12;;;;;;;13.38;11.23;;;;;;;15.65;100.00;100461.44;5044599;28;20040;-67
2023/08/30 10:10:39;;;;;;;14.13;11.02;;;;;;;15.59;100.00;100453.41;5046965;28;20069;-67
2023/08/30 10:13:05;;;;;;;12.68;10.75;;;;;;;15.58;100.00;100457.06;5047221;28;20028;-67
2023/08/30 10:15:35;;;;;;;11.85;10.65;;;;;;;15.59;100.00;100464.94;5048952;28;20020;-67
2023/08/30 10:18:02;;;;;;;12.77;11.48;;;;;;;15.69;100.00;100457.28;5005917;28;1018450;-67
2023/08/30 10:20:28;;;;;;;13.35;11.95;;;;;;;15.84;100.00;100451.63;5044006;28;20013;-67
2023/08/30 10:22:56;;;;;;;12.57;11.32;;;;;;;15.99;100.00;100451.34;5047707;28;20040;-67
2023/08/30 10:25:26;;;;;;;13.98;12.68;;;;;;;16.27;100.00;100451.78;5037902;28;20032;-67
2023/08/30 10:27:53;;;;;;;11.70;10.60;;;;;;;16.48;100.00;100452.44;5041615;28;20108;-68
2023/08/30 10:30:20;;;;;;;11.10;9.73;;;;;;;16.60;100.00;100450.69;5042872;28;20043;-67
2023/08/30 10:32:45;;;;;;;12.15;10.50;;;;;;;16.67;100.00;100433.53;5044172;28;20039;-67
2023/08/30 10:35:13;;;;;;;9.85;8.88;;;;;;;16.78;99.51;100431.19;5045877;28;20104;-67
2023/08/30 10:37:38;;;;;;;9.98;8.82;;;;;;;16.87;97.97;100433.34;5049583;28;20032;-67
2023/08/30 10:40:05;;;;;;;10.18;9.15;;;;;;;16.87;96.34;100425.31;5043787;28;20025;-67
2023/08/30 10:42:32;;;;;;;10.25;9.23;;;;;;;16.90;96.25;100429.41;5041944;28;20394;-67
2023/08/30 10:44:59;;;;;;;10.85;9.52;;;;;;;17.07;96.92;100411.69;5044823;28;20024;-67
2023/08/30 10:47:28;;;;;;;11.52;9.88;;;;;;;17.27;96.63;100430.22;5033551;28;20025;-67
2023/08/30 10:49:55;;;;;;;10.63;8.00;;;;;;;17.18;94.99;100434.28;5036608;28;20048;-67
2023/08/30 10:52:21;;;;;;;10.13;8.38;;;;;;;17.17;95.39;100454.91;5049046;28;20536;-68
2023/08/30 10:54:46;;;;;;;9.27;5.07;;;;;;;17.03;94.73;100446.19;5045193;28;20021;-68
2023/08/30 10:57:17;;;;;;;6.55;4.78;;;;;;;16.94;93.29;100452.88;5037419;28;20037;-67
2023/08/30 11:00:09;;;;;;;7.03;4.50;;;;;;;16.92;92.96;100448.78;5042843;28;20113;-67
2023/08/30 11:02:35;;;;;;;11.20;4.35;;;;;;;16.98;91.18;100470.16;5041647;28;20096;-67
2023/08/30 11:05:02;;;;;;;6.97;3.72;;;;;;;17.01;90.54;100464.34;5040017;28;20601;-67